sensor_id;sensor_type;location;lat;lon;timestamp;P1;durP1;ratioP1;P2;durP2;ratioP2
57339;SDS011;43174;50.930;18.170;2023-04-24T00:04:36;5.40;;;5.10;;
57339;SDS011;43174;50.930;18.170;2023-04-24T00:14:22;6.60;;;6.10;;
57339;SDS011;43174;50.930;18.170;2023-04-24T00:24:04;4.60;;;4.30;;
57339;SDS011;43174;50.930;18.170;2023-04-24T00:33:46;5.90;;;5.50;;
57339;SDS011;43174;50.930;18.170;2023-04-24T00:43:27;6.80;;;5.40;;
57339;SDS011;43174;50.930;18.170;2023-04-24T00:53:09;6.40;;;6.10;;
57339;SDS011;43174;50.930;18.170;2023-04-24T01:02:53;5.00;;;4.80;;
57339;SDS011;43174;50.930;18.170;2023-04-24T01:12:37;5.20;;;4.90;;
57339;SDS011;43174;50.930;18.170;2023-04-24T01:22:22;4.90;;;4.60;;
57339;SDS011;43174;50.930;18.170;2023-04-24T01:32:04;4.90;;;4.60;;
57339;SDS011;43174;50.930;18.170;2023-04-24T01:34:30;7.90;;;7.10;;
57339;SDS011;43174;50.930;18.170;2023-04-24T01:44:16;6.40;;;6.10;;
57339;SDS011;43174;50.930;18.170;2023-04-24T01:53:58;10.40;;;7.80;;
57339;SDS011;43174;50.930;18.170;2023-04-24T02:03:40;8.40;;;7.90;;
57339;SDS011;43174;50.930;18.170;2023-04-24T02:13:22;8.60;;;8.00;;
57339;SDS011;43174;50.930;18.170;2023-04-24T02:23:04;15.90;;;10.30;;
57339;SDS011;43174;50.930;18.170;2023-04-24T02:32:46;9.70;;;8.40;;
57339;SDS011;43174;50.930;18.170;2023-04-24T02:42:28;16.90;;;6.90;;
57339;SDS011;43174;50.930;18.170;2023-04-24T02:52:10;12.20;;;9.40;;
57339;SDS011;43174;50.930;18.170;2023-04-24T03:01:54;10.50;;;9.90;;
57339;SDS011;43174;50.930;18.170;2023-04-24T03:11:36;7.60;;;7.10;;
57339;SDS011;43174;50.930;18.170;2023-04-24T03:21:18;10.60;;;9.80;;
57339;SDS011;43174;50.930;18.170;2023-04-24T03:31:02;7.10;;;6.70;;
57339;SDS011;43174;50.930;18.170;2023-04-24T03:40:44;9.50;;;8.50;;
57339;SDS011;43174;50.930;18.170;2023-04-24T03:50:25;9.20;;;8.70;;
57339;SDS011;43174;50.930;18.170;2023-04-24T04:00:08;9.50;;;8.90;;
57339;SDS011;43174;50.930;18.170;2023-04-24T04:09:52;10.30;;;9.60;;
57339;SDS011;43174;50.930;18.170;2023-04-24T04:19:34;9.80;;;9.20;;
57339;SDS011;43174;50.930;18.170;2023-04-24T04:29:17;8.80;;;8.30;;
57339;SDS011;43174;50.930;18.170;2023-04-24T04:39:05;9.20;;;8.70;;
57339;SDS011;43174;50.930;18.170;2023-04-24T04:48:52;10.30;;;9.70;;
57339;SDS011;43174;50.930;18.170;2023-04-24T04:58:34;13.50;;;12.70;;
57339;SDS011;43174;50.930;18.170;2023-04-24T05:08:16;10.00;;;9.40;;
57339;SDS011;43174;50.930;18.170;2023-04-24T05:17:58;10.60;;;10.00;;
57339;SDS011;43174;50.930;18.170;2023-04-24T05:27:41;14.20;;;13.00;;
57339;SDS011;43174;50.930;18.170;2023-04-24T05:37:24;9.90;;;9.10;;
57339;SDS011;43174;50.930;18.170;2023-04-24T05:47:06;6.20;;;6.00;;
57339;SDS011;43174;50.930;18.170;2023-04-24T05:56:49;11.60;;;10.80;;
57339;SDS011;43174;50.930;18.170;2023-04-24T06:06:32;8.00;;;7.60;;
57339;SDS011;43174;50.930;18.170;2023-04-24T06:16:15;11.10;;;10.30;;
57339;SDS011;43174;50.930;18.170;2023-04-24T06:25:58;10.40;;;9.00;;
57339;SDS011;43174;50.930;18.170;2023-04-24T06:35:41;10.10;;;9.30;;
57339;SDS011;43174;50.930;18.170;2023-04-24T06:45:25;8.90;;;8.50;;
57339;SDS011;43174;50.930;18.170;2023-04-24T06:55:08;10.50;;;9.60;;
57339;SDS011;43174;50.930;18.170;2023-04-24T07:04:50;12.10;;;10.80;;
57339;SDS011;43174;50.930;18.170;2023-04-24T07:14:33;9.50;;;8.80;;
57339;SDS011;43174;50.930;18.170;2023-04-24T07:24:15;7.70;;;4.80;;
57339;SDS011;43174;50.930;18.170;2023-04-24T07:33:57;9.00;;;8.40;;
57339;SDS011;43174;50.930;18.170;2023-04-24T07:43:40;6.90;;;6.50;;
57339;SDS011;43174;50.930;18.170;2023-04-24T07:53:23;6.70;;;6.30;;
57339;SDS011;43174;50.930;18.170;2023-04-24T07:58:15;5.60;;;5.30;;
57339;SDS011;43174;50.930;18.170;2023-04-24T08:07:57;11.50;;;6.60;;
57339;SDS011;43174;50.930;18.170;2023-04-24T08:17:39;4.70;;;4.30;;
57339;SDS011;43174;50.930;18.170;2023-04-24T08:27:22;4.00;;;3.60;;
57339;SDS011;43174;50.930;18.170;2023-04-24T08:37:04;3.40;;;3.20;;
57339;SDS011;43174;50.930;18.170;2023-04-24T08:46:47;3.60;;;3.30;;
57339;SDS011;43174;50.930;18.170;2023-04-24T08:56:29;2.90;;;2.70;;
57339;SDS011;43174;50.930;18.170;2023-04-24T09:06:14;4.80;;;4.50;;
57339;SDS011;43174;50.930;18.170;2023-04-24T09:15:56;8.90;;;8.30;;
57339;SDS011;43174;50.930;18.170;2023-04-24T09:25:41;1.00;;;1.00;;
57339;SDS011;43174;50.930;18.170;2023-04-24T09:35:23;8.70;;;3.90;;
57339;SDS011;43174;50.930;18.170;2023-04-24T09:45:09;4.40;;;4.00;;
57339;SDS011;43174;50.930;18.170;2023-04-24T09:54:54;2.30;;;2.10;;
57339;SDS011;43174;50.930;18.170;2023-04-24T10:04:37;4.10;;;3.90;;
57339;SDS011;43174;50.930;18.170;2023-04-24T10:14:22;1.10;;;1.10;;
57339;SDS011;43174;50.930;18.170;2023-04-24T10:24:08;4.40;;;4.00;;
57339;SDS011;43174;50.930;18.170;2023-04-24T10:33:52;5.30;;;5.00;;
57339;SDS011;43174;50.930;18.170;2023-04-24T10:43:39;3.60;;;3.30;;
57339;SDS011;43174;50.930;18.170;2023-04-24T10:53:24;3.50;;;3.30;;
57339;SDS011;43174;50.930;18.170;2023-04-24T11:10:26;4.20;;;3.90;;
57339;SDS011;43174;50.930;18.170;2023-04-24T11:20:11;2.90;;;2.70;;
57339;SDS011;43174;50.930;18.170;2023-04-24T11:39:38;3.40;;;3.20;;
57339;SDS011;43174;50.930;18.170;2023-04-24T11:44:31;6.00;;;5.60;;
57339;SDS011;43174;50.930;18.170;2023-04-24T11:54:15;3.90;;;3.60;;
57339;SDS011;43174;50.930;18.170;2023-04-24T12:03:59;4.60;;;4.30;;
57339;SDS011;43174;50.930;18.170;2023-04-24T12:13:43;4.20;;;4.00;;
57339;SDS011;43174;50.930;18.170;2023-04-24T12:16:09;5.00;;;4.60;;
57339;SDS011;43174;50.930;18.170;2023-04-24T12:25:51;3.60;;;3.40;;
57339;SDS011;43174;50.930;18.170;2023-04-24T12:35:40;1.50;;;0.90;;
57339;SDS011;43174;50.930;18.170;2023-04-24T12:45:23;13.50;;;5.00;;
57339;SDS011;43174;50.930;18.170;2023-04-24T12:55:07;4.90;;;4.70;;
57339;SDS011;43174;50.930;18.170;2023-04-24T13:04:51;4.00;;;3.80;;
57339;SDS011;43174;50.930;18.170;2023-04-24T13:14:33;6.80;;;5.70;;
57339;SDS011;43174;50.930;18.170;2023-04-24T13:24:16;6.70;;;5.70;;
57339;SDS011;43174;50.930;18.170;2023-04-24T13:33:58;6.30;;;6.00;;
57339;SDS011;43174;50.930;18.170;2023-04-24T13:43:41;5.60;;;5.10;;
57339;SDS011;43174;50.930;18.170;2023-04-24T13:53:26;5.00;;;4.80;;
57339;SDS011;43174;50.930;18.170;2023-04-24T14:10:27;6.30;;;6.00;;
57339;SDS011;43174;50.930;18.170;2023-04-24T14:12:53;7.20;;;6.70;;
57339;SDS011;43174;50.930;18.170;2023-04-24T14:22:38;5.60;;;5.30;;
57339;SDS011;43174;50.930;18.170;2023-04-24T14:32:22;5.50;;;5.30;;
57339;SDS011;43174;50.930;18.170;2023-04-24T14:42:07;6.20;;;5.70;;
57339;SDS011;43174;50.930;18.170;2023-04-24T14:51:50;18.10;;;7.00;;
57339;SDS011;43174;50.930;18.170;2023-04-24T15:01:35;14.20;;;7.10;;
57339;SDS011;43174;50.930;18.170;2023-04-24T15:11:19;8.10;;;7.70;;
57339;SDS011;43174;50.930;18.170;2023-04-24T15:21:02;6.30;;;6.00;;
57339;SDS011;43174;50.930;18.170;2023-04-24T15:30:47;11.00;;;10.40;;
57339;SDS011;43174;50.930;18.170;2023-04-24T15:47:47;9.20;;;8.80;;
57339;SDS011;43174;50.930;18.170;2023-04-24T15:57:31;13.70;;;12.90;;
57339;SDS011;43174;50.930;18.170;2023-04-24T16:07:13;12.00;;;11.20;;
57339;SDS011;43174;50.930;18.170;2023-04-24T16:16:56;14.10;;;13.40;;
57339;SDS011;43174;50.930;18.170;2023-04-24T16:26:39;17.10;;;16.00;;
57339;SDS011;43174;50.930;18.170;2023-04-24T16:36:24;14.50;;;13.80;;
57339;SDS011;43174;50.930;18.170;2023-04-24T16:46:09;18.00;;;17.00;;
57339;SDS011;43174;50.930;18.170;2023-04-24T16:55:53;18.90;;;17.60;;
57339;SDS011;43174;50.930;18.170;2023-04-24T17:05:39;44.30;;;22.10;;
57339;SDS011;43174;50.930;18.170;2023-04-24T17:15:25;21.20;;;19.20;;
57339;SDS011;43174;50.930;18.170;2023-04-24T17:25:09;19.20;;;18.00;;
57339;SDS011;43174;50.930;18.170;2023-04-24T17:34:55;18.10;;;17.20;;
57339;SDS011;43174;50.930;18.170;2023-04-24T17:44:39;15.00;;;14.20;;
57339;SDS011;43174;50.930;18.170;2023-04-24T17:54:23;15.40;;;14.70;;
57339;SDS011;43174;50.930;18.170;2023-04-24T18:04:13;12.50;;;11.80;;
57339;SDS011;43174;50.930;18.170;2023-04-24T18:13:56;11.50;;;10.90;;
57339;SDS011;43174;50.930;18.170;2023-04-24T18:23:41;9.60;;;9.00;;
57339;SDS011;43174;50.930;18.170;2023-04-24T18:33:25;9.20;;;8.70;;
57339;SDS011;43174;50.930;18.170;2023-04-24T18:35:52;8.60;;;8.00;;
57339;SDS011;43174;50.930;18.170;2023-04-24T18:45:37;7.70;;;7.20;;
57339;SDS011;43174;50.930;18.170;2023-04-24T18:55:24;5.50;;;5.20;;
57339;SDS011;43174;50.930;18.170;2023-04-24T19:05:09;5.10;;;4.70;;
57339;SDS011;43174;50.930;18.170;2023-04-24T19:14:53;1.70;;;1.70;;
57339;SDS011;43174;50.930;18.170;2023-04-24T19:24:41;2.30;;;2.20;;
57339;SDS011;43174;50.930;18.170;2023-04-24T19:34:24;3.80;;;3.40;;
57339;SDS011;43174;50.930;18.170;2023-04-24T19:51:24;3.30;;;3.00;;
57339;SDS011;43174;50.930;18.170;2023-04-24T20:01:07;2.70;;;2.60;;
57339;SDS011;43174;50.930;18.170;2023-04-24T20:10:49;4.70;;;4.50;;
57339;SDS011;43174;50.930;18.170;2023-04-24T20:20:35;4.80;;;4.50;;
57339;SDS011;43174;50.930;18.170;2023-04-24T20:30:19;3.70;;;3.60;;
57339;SDS011;43174;50.930;18.170;2023-04-24T20:40:02;7.70;;;7.00;;
57339;SDS011;43174;50.930;18.170;2023-04-24T20:49:47;7.00;;;6.60;;
57339;SDS011;43174;50.930;18.170;2023-04-24T20:59:31;5.90;;;5.70;;
57339;SDS011;43174;50.930;18.170;2023-04-24T21:09:13;14.00;;;8.30;;
57339;SDS011;43174;50.930;18.170;2023-04-24T21:18:55;25.00;;;7.00;;
57339;SDS011;43174;50.930;18.170;2023-04-24T21:28:37;8.80;;;8.40;;
57339;SDS011;43174;50.930;18.170;2023-04-24T21:38:21;12.40;;;11.20;;
57339;SDS011;43174;50.930;18.170;2023-04-24T21:48:06;11.30;;;10.70;;
57339;SDS011;43174;50.930;18.170;2023-04-24T21:57:47;12.60;;;12.00;;
57339;SDS011;43174;50.930;18.170;2023-04-24T22:07:34;10.60;;;10.00;;
57339;SDS011;43174;50.930;18.170;2023-04-24T22:17:17;3.70;;;3.60;;
57339;SDS011;43174;50.930;18.170;2023-04-24T22:26:59;11.90;;;11.20;;
57339;SDS011;43174;50.930;18.170;2023-04-24T22:36:42;13.60;;;12.60;;
57339;SDS011;43174;50.930;18.170;2023-04-24T22:46:25;13.30;;;12.50;;
57339;SDS011;43174;50.930;18.170;2023-04-24T22:56:08;17.50;;;14.90;;
57339;SDS011;43174;50.930;18.170;2023-04-24T23:05:50;26.80;;;18.50;;
57339;SDS011;43174;50.930;18.170;2023-04-24T23:15:32;17.40;;;16.20;;
57339;SDS011;43174;50.930;18.170;2023-04-24T23:25:15;16.60;;;15.50;;
57339;SDS011;43174;50.930;18.170;2023-04-24T23:34:57;14.60;;;13.70;;
57339;SDS011;43174;50.930;18.170;2023-04-24T23:44:40;9.70;;;8.90;;
57339;SDS011;43174;50.930;18.170;2023-04-24T23:54:22;6.20;;;5.80;;
